ROU1873 CYYZ-MRLB
Flight info
| Callsign | ROU1873 |
|---|---|
| Flight time | N/A |
| Altitude | 34000 |
| Route | MIXUT7 GNTRY DCT DJB DCT FLM DCT BNA DCT MEI/N0469F360 J31 HRV/N0467F350 L333 CCUDA/N0464F370 L333 PISAD UL333 URTOK/N0468F360 UT29 SIGMA DCT LANDA/N0465F370 UB881 BTO/N0468F360 UA754 TNT UA502 LIBIS/N0466F370 UA502 MGA DCT OVADO OVADO1S |
| Aircraft | B38M/M-SDE1FGHILORVWXY/HB1 |
Departure
| Time | N/A |
|---|---|
| Airport | Toronto Pearson International Airport (CYYZ) |
Arrival
| Time | 2026-05-07 22:13 |
|---|---|
| Airport | Daniel Oduber Quirós International Airport (MRLB) |
| Time | Latitude | Longitude | Altitude | Speed | Heading |
|---|---|---|---|---|---|
| 2026-05-07 20:55 | 19.15506 | -86.51123 | 36947 ft | 462 kts | 198° |
| 2026-05-07 20:55 | 19.09304 | -86.53049 | 36947 ft | 462 kts | 198° |
| 2026-05-07 20:56 | 19.03161 | -86.54956 | 36945 ft | 463 kts | 198° |
| 2026-05-07 20:56 | 18.96981 | -86.56873 | 36943 ft | 462 kts | 198° |
| 2026-05-07 20:57 | 18.90810 | -86.58786 | 36942 ft | 462 kts | 197° |
| 2026-05-07 20:57 | 18.84639 | -86.60697 | 36940 ft | 462 kts | 197° |
| 2026-05-07 20:58 | 18.78469 | -86.62607 | 36938 ft | 462 kts | 197° |
| 2026-05-07 20:58 | 18.72299 | -86.64515 | 36936 ft | 462 kts | 197° |
| 2026-05-07 20:59 | 18.66130 | -86.66421 | 36937 ft | 462 kts | 197° |
| 2026-05-07 20:59 | 18.59959 | -86.68327 | 36935 ft | 462 kts | 197° |
| 2026-05-07 21:00 | 18.53789 | -86.70230 | 36934 ft | 462 kts | 197° |
| 2026-05-07 21:00 | 18.47618 | -86.72133 | 36915 ft | 462 kts | 197° |
| 2026-05-07 21:01 | 18.41447 | -86.74034 | 36909 ft | 462 kts | 197° |
| 2026-05-07 21:01 | 18.35276 | -86.75934 | 36907 ft | 462 kts | 197° |
| 2026-05-07 21:02 | 18.29103 | -86.77833 | 36909 ft | 462 kts | 197° |
| 2026-05-07 21:02 | 18.22935 | -86.79729 | 36908 ft | 462 kts | 197° |
| 2026-05-07 21:03 | 18.16803 | -86.81612 | 36908 ft | 462 kts | 197° |
| 2026-05-07 21:03 | 18.10636 | -86.83505 | 36908 ft | 462 kts | 197° |
| 2026-05-07 21:04 | 18.04467 | -86.85398 | 36908 ft | 462 kts | 197° |
| 2026-05-07 21:04 | 17.98298 | -86.87289 | 36909 ft | 462 kts | 197° |
| 2026-05-07 21:05 | 17.92062 | -86.88914 | 36898 ft | 464 kts | 185° |
| 2026-05-07 21:05 | 17.85607 | -86.89022 | 36907 ft | 464 kts | 180° |
| 2026-05-07 21:06 | 17.79150 | -86.88958 | 36906 ft | 464 kts | 179° |
| 2026-05-07 21:06 | 17.72697 | -86.88859 | 36904 ft | 464 kts | 179° |
| 2026-05-07 21:07 | 17.66249 | -86.88758 | 36904 ft | 464 kts | 179° |
| 2026-05-07 21:07 | 17.59798 | -86.88656 | 36904 ft | 464 kts | 179° |
| 2026-05-07 21:08 | 17.53348 | -86.88555 | 36903 ft | 463 kts | 179° |
| 2026-05-07 21:08 | 17.46897 | -86.88453 | 36897 ft | 463 kts | 179° |
| 2026-05-07 21:09 | 17.40449 | -86.88352 | 36897 ft | 463 kts | 179° |
| 2026-05-07 21:09 | 17.33993 | -86.88251 | 36897 ft | 464 kts | 179° |
| 2026-05-07 21:10 | 17.27536 | -86.88149 | 36899 ft | 464 kts | 179° |
| 2026-05-07 21:10 | 17.21076 | -86.88048 | 36898 ft | 464 kts | 179° |
| 2026-05-07 21:11 | 17.14613 | -86.87947 | 36898 ft | 464 kts | 179° |
| 2026-05-07 21:11 | 17.04927 | -86.87795 | 36897 ft | 464 kts | 179° |
| 2026-05-07 21:12 | 16.98511 | -86.87695 | 36898 ft | 464 kts | 179° |
| 2026-05-07 21:12 | 16.92054 | -86.87594 | 36898 ft | 465 kts | 179° |
| 2026-05-07 21:13 | 16.85585 | -86.87493 | 36898 ft | 465 kts | 179° |
| 2026-05-07 21:13 | 16.79117 | -86.87392 | 36899 ft | 465 kts | 179° |
| 2026-05-07 21:14 | 16.72654 | -86.87291 | 36899 ft | 465 kts | 179° |
| 2026-05-07 21:14 | 16.66187 | -86.87191 | 36898 ft | 465 kts | 179° |
| 2026-05-07 21:15 | 16.59723 | -86.87090 | 36900 ft | 464 kts | 179° |
| 2026-05-07 21:15 | 16.53259 | -86.86989 | 36900 ft | 464 kts | 179° |
| 2026-05-07 21:16 | 16.46791 | -86.86889 | 36899 ft | 465 kts | 179° |
| 2026-05-07 21:16 | 16.40314 | -86.86788 | 36873 ft | 465 kts | 179° |
| 2026-05-07 21:17 | 16.33842 | -86.86687 | 36875 ft | 465 kts | 179° |
| 2026-05-07 21:17 | 16.27367 | -86.86587 | 36867 ft | 465 kts | 179° |
| 2026-05-07 21:18 | 16.20894 | -86.86487 | 36866 ft | 465 kts | 179° |
| 2026-05-07 21:18 | 16.14419 | -86.86386 | 36864 ft | 465 kts | 179° |
| 2026-05-07 21:19 | 16.07988 | -86.86363 | 36860 ft | 465 kts | 180° |
| 2026-05-07 21:19 | 16.01512 | -86.86376 | 36857 ft | 465 kts | 180° |
| 2026-05-07 21:20 | 15.95031 | -86.86385 | 36855 ft | 466 kts | 180° |
| 2026-05-07 21:20 | 15.88546 | -86.86394 | 36851 ft | 466 kts | 180° |
| 2026-05-07 21:21 | 15.82052 | -86.86403 | 36847 ft | 466 kts | 180° |
| 2026-05-07 21:21 | 15.75567 | -86.86413 | 36846 ft | 466 kts | 180° |
| 2026-05-07 21:22 | 15.69160 | -86.87413 | 36841 ft | 466 kts | 191° |
| 2026-05-07 21:22 | 15.62799 | -86.88766 | 36846 ft | 467 kts | 191° |
| 2026-05-07 21:23 | 15.56441 | -86.90137 | 36847 ft | 467 kts | 191° |
| 2026-05-07 21:23 | 15.51111 | -86.91286 | 36849 ft | 467 kts | 191° |
| 2026-05-07 21:24 | 15.44748 | -86.92658 | 36851 ft | 467 kts | 191° |
| 2026-05-07 21:24 | 15.38385 | -86.94029 | 36860 ft | 467 kts | 191° |
| 2026-05-07 21:25 | 15.32061 | -86.95390 | 36865 ft | 467 kts | 191° |
| 2026-05-07 21:25 | 15.25652 | -86.96769 | 36868 ft | 467 kts | 191° |
| 2026-05-07 21:26 | 15.19332 | -86.98128 | 36871 ft | 467 kts | 191° |
| 2026-05-07 21:26 | 15.12958 | -86.99497 | 36877 ft | 467 kts | 191° |
| 2026-05-07 21:27 | 15.06590 | -87.00865 | 36881 ft | 468 kts | 191° |
| 2026-05-07 21:27 | 15.00215 | -87.02233 | 36886 ft | 468 kts | 191° |
| 2026-05-07 21:28 | 14.93840 | -87.03601 | 36891 ft | 468 kts | 191° |
| 2026-05-07 21:28 | 14.87463 | -87.04967 | 36899 ft | 468 kts | 191° |
| 2026-05-07 21:29 | 14.81085 | -87.06334 | 36907 ft | 468 kts | 191° |
| 2026-05-07 21:29 | 14.74704 | -87.07700 | 36916 ft | 468 kts | 191° |
| 2026-05-07 21:30 | 14.68322 | -87.09065 | 36924 ft | 468 kts | 191° |
| 2026-05-07 21:30 | 14.61945 | -87.10429 | 36928 ft | 468 kts | 191° |
| 2026-05-07 21:31 | 14.55558 | -87.11794 | 36992 ft | 469 kts | 191° |
| 2026-05-07 21:31 | 14.49174 | -87.13158 | 36999 ft | 468 kts | 191° |
| 2026-05-07 21:32 | 14.42794 | -87.14514 | 37011 ft | 468 kts | 191° |
| 2026-05-07 21:32 | 14.36405 | -87.15860 | 37010 ft | 468 kts | 191° |
| 2026-05-07 21:33 | 14.30022 | -87.17204 | 37017 ft | 468 kts | 191° |
| 2026-05-07 21:33 | 14.23673 | -87.18541 | 37029 ft | 469 kts | 191° |
| 2026-05-07 21:34 | 14.17242 | -87.19894 | 37041 ft | 469 kts | 191° |
| 2026-05-07 21:34 | 14.10892 | -87.21230 | 37049 ft | 469 kts | 191° |
| 2026-05-07 21:35 | 14.04494 | -87.22574 | 37053 ft | 469 kts | 191° |
| 2026-05-07 21:35 | 13.98015 | -87.23340 | 37045 ft | 469 kts | 185° |
| 2026-05-07 21:36 | 13.91502 | -87.23941 | 37036 ft | 470 kts | 185° |
| 2026-05-07 21:36 | 13.84982 | -87.24531 | 37016 ft | 470 kts | 185° |
| 2026-05-07 21:37 | 13.78467 | -87.25120 | 36989 ft | 470 kts | 185° |
| 2026-05-07 21:37 | 13.71950 | -87.25708 | 36960 ft | 470 kts | 185° |
| 2026-05-07 21:38 | 13.65432 | -87.26219 | 36914 ft | 470 kts | 178° |
| 2026-05-07 21:38 | 13.62195 | -87.25773 | 36913 ft | 470 kts | 166° |
| 2026-05-07 21:38 | 13.59161 | -87.24576 | 36908 ft | 468 kts | 151° |
| 2026-05-07 21:39 | 13.53700 | -87.20924 | 36880 ft | 468 kts | 144° |
| 2026-05-07 21:39 | 13.48386 | -87.17061 | 36863 ft | 468 kts | 143° |
| 2026-05-07 21:40 | 13.43105 | -87.13160 | 36855 ft | 468 kts | 143° |
| 2026-05-07 21:40 | 13.37823 | -87.09252 | 36850 ft | 468 kts | 143° |
| 2026-05-07 21:41 | 13.32543 | -87.05346 | 36850 ft | 468 kts | 143° |
| 2026-05-07 21:41 | 13.27265 | -87.01444 | 36845 ft | 468 kts | 143° |
| 2026-05-07 21:42 | 13.22012 | -86.97563 | 36846 ft | 468 kts | 143° |
| 2026-05-07 21:42 | 13.16731 | -86.93663 | 36846 ft | 468 kts | 143° |
| 2026-05-07 21:43 | 13.11439 | -86.89693 | 36845 ft | 468 kts | 143° |
| 2026-05-07 21:43 | 13.06223 | -86.85769 | 36845 ft | 468 kts | 143° |
| 2026-05-07 21:44 | 13.00976 | -86.81825 | 36845 ft | 468 kts | 143° |
| 2026-05-07 21:44 | 12.95721 | -86.77879 | 36844 ft | 468 kts | 143° |
| 2026-05-07 21:45 | 12.90450 | -86.73969 | 36843 ft | 468 kts | 143° |
| 2026-05-07 21:45 | 12.85174 | -86.70054 | 36842 ft | 468 kts | 143° |
| 2026-05-07 21:46 | 12.79898 | -86.66141 | 36841 ft | 468 kts | 143° |
| 2026-05-07 21:46 | 12.74614 | -86.62225 | 36841 ft | 469 kts | 143° |
| 2026-05-07 21:47 | 12.69336 | -86.58314 | 36839 ft | 469 kts | 143° |
| 2026-05-07 21:47 | 12.64054 | -86.54404 | 36837 ft | 469 kts | 143° |
| 2026-05-07 21:48 | 12.58764 | -86.50489 | 36831 ft | 469 kts | 143° |
| 2026-05-07 21:48 | 12.53477 | -86.46578 | 36829 ft | 469 kts | 143° |
| 2026-05-07 21:49 | 12.48183 | -86.42665 | 36826 ft | 469 kts | 143° |
| 2026-05-07 21:49 | 12.42889 | -86.38753 | 36824 ft | 469 kts | 143° |
| 2026-05-07 21:50 | 12.37596 | -86.34843 | 36822 ft | 470 kts | 143° |
| 2026-05-07 21:50 | 12.32297 | -86.30932 | 36819 ft | 469 kts | 143° |
| 2026-05-07 21:51 | 12.27034 | -86.27050 | 36818 ft | 470 kts | 143° |
| 2026-05-07 21:51 | 12.21738 | -86.23144 | 36816 ft | 470 kts | 143° |
| 2026-05-07 21:52 | 12.16439 | -86.19238 | 36816 ft | 470 kts | 143° |
| 2026-05-07 21:52 | 12.10650 | -86.16125 | 36616 ft | 473 kts | 156° |
| 2026-05-07 21:53 | 12.07591 | -86.14840 | 35631 ft | 478 kts | 156° |
| 2026-05-07 21:53 | 12.04484 | -86.13559 | 34488 ft | 484 kts | 156° |
| 2026-05-07 21:53 | 12.01353 | -86.12278 | 33316 ft | 486 kts | 156° |
| 2026-05-07 21:53 | 11.98207 | -86.10997 | 32298 ft | 484 kts | 156° |
| 2026-05-07 21:54 | 11.95105 | -86.09734 | 31512 ft | 477 kts | 156° |
| 2026-05-07 21:54 | 11.92046 | -86.08488 | 30891 ft | 469 kts | 156° |
| 2026-05-07 21:54 | 11.89039 | -86.07265 | 30180 ft | 461 kts | 155° |
| 2026-05-07 21:54 | 11.86067 | -86.06055 | 29339 ft | 461 kts | 155° |
| 2026-05-07 21:55 | 11.83077 | -86.04839 | 28432 ft | 464 kts | 155° |
| 2026-05-07 21:55 | 11.80072 | -86.03616 | 27536 ft | 466 kts | 155° |
| 2026-05-07 21:55 | 11.77051 | -86.02388 | 26800 ft | 468 kts | 155° |
| 2026-05-07 21:55 | 11.74021 | -86.01156 | 26072 ft | 468 kts | 155° |
| 2026-05-07 21:56 | 11.71013 | -85.99934 | 25353 ft | 463 kts | 155° |
| 2026-05-07 21:56 | 11.68032 | -85.98723 | 24651 ft | 460 kts | 155° |
| 2026-05-07 21:56 | 11.65067 | -85.97518 | 23952 ft | 457 kts | 155° |
| 2026-05-07 21:56 | 11.62129 | -85.96326 | 23263 ft | 453 kts | 155° |
| 2026-05-07 21:57 | 11.59208 | -85.95140 | 22578 ft | 450 kts | 155° |
| 2026-05-07 21:57 | 11.56311 | -85.93964 | 21901 ft | 446 kts | 155° |
| 2026-05-07 21:57 | 11.53441 | -85.92799 | 21232 ft | 442 kts | 155° |
| 2026-05-07 21:57 | 11.50660 | -85.91504 | 20466 ft | 439 kts | 151° |
| 2026-05-07 21:58 | 11.47930 | -85.90136 | 19777 ft | 435 kts | 152° |
| 2026-05-07 21:58 | 11.45218 | -85.88795 | 19142 ft | 431 kts | 152° |
| 2026-05-07 21:58 | 11.42533 | -85.87475 | 18493 ft | 426 kts | 152° |
| 2026-05-07 21:58 | 11.39875 | -85.86170 | 17845 ft | 421 kts | 152° |
| 2026-05-07 21:59 | 11.37272 | -85.84893 | 17202 ft | 410 kts | 152° |
| 2026-05-07 21:59 | 11.34730 | -85.83646 | 16570 ft | 401 kts | 152° |
| 2026-05-07 21:59 | 11.32239 | -85.82425 | 15953 ft | 395 kts | 152° |
| 2026-05-07 21:59 | 11.29752 | -85.81206 | 15339 ft | 398 kts | 152° |
| 2026-05-07 22:00 | 11.27296 | -85.80002 | 14931 ft | 385 kts | 152° |
| 2026-05-07 22:00 | 11.24925 | -85.78841 | 14534 ft | 371 kts | 152° |
| 2026-05-07 22:00 | 11.22637 | -85.77720 | 14019 ft | 361 kts | 152° |
| 2026-05-07 22:00 | 11.20386 | -85.76617 | 13358 ft | 357 kts | 152° |
| 2026-05-07 22:01 | 11.18159 | -85.75527 | 12651 ft | 354 kts | 152° |
| 2026-05-07 22:01 | 11.15952 | -85.74447 | 11955 ft | 351 kts | 153° |
| 2026-05-07 22:01 | 11.13750 | -85.73368 | 11362 ft | 350 kts | 152° |
| 2026-05-07 22:01 | 11.11565 | -85.72298 | 10855 ft | 347 kts | 153° |
| 2026-05-07 22:02 | 11.09390 | -85.71234 | 10320 ft | 346 kts | 153° |
| 2026-05-07 22:02 | 11.07229 | -85.70177 | 9802 ft | 344 kts | 152° |
| 2026-05-07 22:02 | 11.05110 | -85.69141 | 9635 ft | 330 kts | 152° |
| 2026-05-07 22:02 | 11.03111 | -85.68163 | 9541 ft | 316 kts | 152° |
| 2026-05-07 22:03 | 11.01177 | -85.67217 | 9444 ft | 301 kts | 152° |
| 2026-05-07 22:03 | 10.99333 | -85.66316 | 9335 ft | 288 kts | 152° |
| 2026-05-07 22:03 | 10.97533 | -85.65435 | 8950 ft | 287 kts | 152° |
| 2026-05-07 22:03 | 10.95759 | -85.64568 | 8734 ft | 278 kts | 152° |
| 2026-05-07 22:04 | 10.94212 | -85.63812 | 8608 ft | 269 kts | 152° |
| 2026-05-07 22:04 | 10.92538 | -85.62994 | 8487 ft | 266 kts | 152° |
| 2026-05-07 22:04 | 10.90852 | -85.62170 | 8349 ft | 272 kts | 152° |
| 2026-05-07 22:04 | 10.89138 | -85.61333 | 8091 ft | 274 kts | 152° |
| 2026-05-07 22:05 | 10.87428 | -85.60497 | 7783 ft | 271 kts | 152° |
| 2026-05-07 22:05 | 10.85737 | -85.59671 | 7456 ft | 268 kts | 152° |
| 2026-05-07 22:05 | 10.84067 | -85.58856 | 7130 ft | 265 kts | 152° |
| 2026-05-07 22:05 | 10.82401 | -85.58042 | 6825 ft | 267 kts | 152° |
| 2026-05-07 22:06 | 10.80730 | -85.57226 | 6483 ft | 266 kts | 152° |
| 2026-05-07 22:06 | 10.79072 | -85.56416 | 6192 ft | 261 kts | 152° |
| 2026-05-07 22:06 | 10.77482 | -85.55599 | 5996 ft | 252 kts | 146° |
| 2026-05-07 22:06 | 10.76283 | -85.54344 | 5677 ft | 245 kts | 125° |
| 2026-05-07 22:07 | 10.75437 | -85.52871 | 5482 ft | 238 kts | 117° |
| 2026-05-07 22:07 | 10.74693 | -85.51392 | 5228 ft | 233 kts | 115° |
| 2026-05-07 22:07 | 10.73990 | -85.49930 | 5028 ft | 225 kts | 115° |
| 2026-05-07 22:07 | 10.73330 | -85.48528 | 4849 ft | 217 kts | 114° |
| 2026-05-07 22:08 | 10.72696 | -85.47165 | 4630 ft | 210 kts | 114° |
| 2026-05-07 22:08 | 10.72084 | -85.45838 | 4372 ft | 205 kts | 114° |
| 2026-05-07 22:08 | 10.71490 | -85.44541 | 4135 ft | 199 kts | 114° |
| 2026-05-07 22:08 | 10.70804 | -85.43358 | 3871 ft | 195 kts | 127° |
| 2026-05-07 22:09 | 10.69680 | -85.42582 | 3562 ft | 194 kts | 149° |
| 2026-05-07 22:09 | 10.68456 | -85.42030 | 3299 ft | 191 kts | 155° |
| 2026-05-07 22:09 | 10.67228 | -85.41538 | 3013 ft | 188 kts | 157° |
| 2026-05-07 22:09 | 10.65950 | -85.41299 | 2647 ft | 191 kts | 178° |
| 2026-05-07 22:10 | 10.65105 | -85.41514 | 2486 ft | 188 kts | 197° |
| 2026-05-07 22:10 | 10.64063 | -85.42294 | 2296 ft | 188 kts | 224° |
| 2026-05-07 22:10 | 10.63407 | -85.43426 | 2216 ft | 181 kts | 243° |
| 2026-05-07 22:10 | 10.62923 | -85.44547 | 2060 ft | 165 kts | 246° |
| 2026-05-07 22:11 | 10.62507 | -85.45603 | 1847 ft | 157 kts | 249° |
| 2026-05-07 22:11 | 10.62126 | -85.46640 | 1770 ft | 160 kts | 252° |
| 2026-05-07 22:11 | 10.61737 | -85.47721 | 1535 ft | 163 kts | 253° |
| 2026-05-07 22:11 | 10.61315 | -85.48781 | 1301 ft | 161 kts | 252° |
| 2026-05-07 22:12 | 10.60922 | -85.49820 | 1069 ft | 155 kts | 254° |
| 2026-05-07 22:12 | 10.60592 | -85.50841 | 828 ft | 149 kts | 255° |
| 2026-05-07 22:12 | 10.60258 | -85.51834 | 604 ft | 148 kts | 252° |
| 2026-05-07 22:12 | 10.59913 | -85.52823 | 404 ft | 149 kts | 253° |
| 2026-05-07 22:13 | 10.59569 | -85.53810 | 282 ft | 138 kts | 249° |
| 2026-05-07 22:13 | 10.59323 | -85.54496 | 281 ft | 73 kts | 251° |
| 2026-05-07 22:13 | 10.59218 | -85.54797 | 281 ft | 15 kts | 253° |
| 2026-05-07 22:13 | 10.59209 | -85.54852 | 281 ft | 1 kts | 226° |
| 2026-05-07 22:14 | 10.59203 | -85.54852 | 281 ft | 2 kts | 161° |
| 2026-05-07 22:14 | 10.59201 | -85.54823 | 281 ft | 7 kts | 71° |
| 2026-05-07 22:14 | 10.59232 | -85.54743 | 281 ft | 18 kts | 69° |
| 2026-05-07 22:14 | 10.59287 | -85.54598 | 281 ft | 23 kts | 69° |
| 2026-05-07 22:15 | 10.59342 | -85.54455 | 281 ft | 21 kts | 69° |
| 2026-05-07 22:15 | 10.59390 | -85.54315 | 281 ft | 19 kts | 73° |
| 2026-05-07 22:15 | 10.59432 | -85.54185 | 281 ft | 20 kts | 70° |
| 2026-05-07 22:15 | 10.59485 | -85.54042 | 281 ft | 23 kts | 70° |
| 2026-05-07 22:16 | 10.59540 | -85.53890 | 281 ft | 20 kts | 70° |
| 2026-05-07 22:16 | 10.59608 | -85.53828 | 281 ft | 12 kts | 352° |
| 2026-05-07 22:16 | 10.59680 | -85.53853 | 281 ft | 12 kts | 341° |
| 2026-05-07 22:16 | 10.59760 | -85.53879 | 281 ft | 9 kts | 6° |
| 2026-05-07 22:17 | 10.59790 | -85.53830 | 281 ft | 12 kts | 69° |
| 2026-05-07 22:17 | 10.59821 | -85.53741 | 281 ft | 15 kts | 70° |
| 2026-05-07 22:17 | 10.59855 | -85.53651 | 281 ft | 12 kts | 69° |
| 2026-05-07 22:17 | 10.59883 | -85.53577 | 281 ft | 10 kts | 70° |
| 2026-05-07 22:18 | 10.59904 | -85.53515 | 281 ft | 8 kts | 71° |
| 2026-05-07 22:18 | 10.59964 | -85.53497 | 281 ft | 3 kts | 339° |
| 2026-05-07 22:18 | 10.59983 | -85.53503 | 281 ft | 4 kts | 342° |
| 2026-05-07 22:19 | 10.60000 | -85.53509 | 281 ft | 1 kts | 339° |
| 2026-05-07 22:19 | 10.60001 | -85.53510 | 281 ft | 0 kts | 339° |